sensor_id;sensor_type;location;lat;lon;timestamp;pressure;altitude;pressure_sealevel;temperature;humidity
16255;BME280;8235;52.198;9.904;2023-03-18T00:00:59;100081.75;;;12.92;49.71
16255;BME280;8235;52.198;9.904;2023-03-18T00:03:30;100084.69;;;12.89;49.55
16255;BME280;8235;52.198;9.904;2023-03-18T00:06:04;100082.16;;;12.87;50.03
16255;BME280;8235;52.198;9.904;2023-03-18T00:08:31;100088.47;;;12.86;50.26
16255;BME280;8235;52.198;9.904;2023-03-18T00:10:58;100091.25;;;12.84;50.34
16255;BME280;8235;52.198;9.904;2023-03-18T00:13:25;100090.41;;;12.84;50.98
16255;BME280;8235;52.198;9.904;2023-03-18T00:15:52;100086.88;;;12.83;51.16
16255;BME280;8235;52.198;9.904;2023-03-18T00:18:19;100095.28;;;12.79;51.42
16255;BME280;8235;52.198;9.904;2023-03-18T00:20:47;100100.72;;;12.77;51.64
16255;BME280;8235;52.198;9.904;2023-03-18T00:23:13;100112.41;;;12.76;51.82
16255;BME280;8235;52.198;9.904;2023-03-18T00:25:41;100103.66;;;12.74;52.34
16255;BME280;8235;52.198;9.904;2023-03-18T00:28:08;100105.47;;;12.74;52.41
16255;BME280;8235;52.198;9.904;2023-03-18T00:30:37;100103.78;;;12.73;52.72
16255;BME280;8235;52.198;9.904;2023-03-18T00:33:04;100103.78;;;12.73;52.57
16255;BME280;8235;52.198;9.904;2023-03-18T00:35:31;100106.59;;;12.71;52.58
16255;BME280;8235;52.198;9.904;2023-03-18T00:37:59;100111.22;;;12.69;52.67
16255;BME280;8235;52.198;9.904;2023-03-18T00:40:28;100106.84;;;12.68;52.73
16255;BME280;8235;52.198;9.904;2023-03-18T00:43:07;100111.44;;;12.66;53.06
16255;BME280;8235;52.198;9.904;2023-03-18T00:45:36;100108.78;;;12.66;53.16
16255;BME280;8235;52.198;9.904;2023-03-18T00:48:03;100118.63;;;12.66;52.94
16255;BME280;8235;52.198;9.904;2023-03-18T00:50:29;100122.13;;;12.66;53.13
16255;BME280;8235;52.198;9.904;2023-03-18T00:52:56;100124.94;;;12.65;53.10
16255;BME280;8235;52.198;9.904;2023-03-18T00:55:25;100125.91;;;12.64;53.21
16255;BME280;8235;52.198;9.904;2023-03-18T00:57:51;100124.19;;;12.63;53.32
16255;BME280;8235;52.198;9.904;2023-03-18T01:00:18;100133.19;;;12.62;53.54
16255;BME280;8235;52.198;9.904;2023-03-18T01:02:45;100134.16;;;12.61;53.41
16255;BME280;8235;52.198;9.904;2023-03-18T01:05:14;100131.72;;;12.58;53.50
16255;BME280;8235;52.198;9.904;2023-03-18T01:07:41;100124.69;;;12.57;53.84
16255;BME280;8235;52.198;9.904;2023-03-18T01:10:08;100137.31;;;12.55;53.95
16255;BME280;8235;52.198;9.904;2023-03-18T01:12:36;100127.75;;;12.52;53.81
16255;BME280;8235;52.198;9.904;2023-03-18T01:15:06;100122.53;;;12.50;53.87
16255;BME280;8235;52.198;9.904;2023-03-18T01:17:33;100122.75;;;12.47;54.09
16255;BME280;8235;52.198;9.904;2023-03-18T01:20:00;100111.34;;;12.45;54.07
16255;BME280;8235;52.198;9.904;2023-03-18T01:22:26;100115.09;;;12.43;54.17
16255;BME280;8235;52.198;9.904;2023-03-18T01:24:53;100112.56;;;12.41;54.31
16255;BME280;8235;52.198;9.904;2023-03-18T01:27:21;100118.00;;;12.40;54.43
16255;BME280;8235;52.198;9.904;2023-03-18T01:29:51;100118.25;;;12.37;54.75
16255;BME280;8235;52.198;9.904;2023-03-18T01:32:17;100111.25;;;12.36;54.71
16255;BME280;8235;52.198;9.904;2023-03-18T01:34:44;100120.22;;;12.35;54.99
16255;BME280;8235;52.198;9.904;2023-03-18T01:37:10;100127.50;;;12.33;55.01
16255;BME280;8235;52.198;9.904;2023-03-18T01:39:38;100122.28;;;12.31;55.41
16255;BME280;8235;52.198;9.904;2023-03-18T01:42:07;100122.28;;;12.31;55.57
16255;BME280;8235;52.198;9.904;2023-03-18T01:44:33;100121.53;;;12.29;55.28
16255;BME280;8235;52.198;9.904;2023-03-18T01:47:01;100126.03;;;12.29;55.88
16255;BME280;8235;52.198;9.904;2023-03-18T01:49:34;100127.00;;;12.28;55.92
16255;BME280;8235;52.198;9.904;2023-03-18T01:52:03;100121.78;;;12.26;55.83
16255;BME280;8235;52.198;9.904;2023-03-18T01:54:33;100120.94;;;12.26;55.91
16255;BME280;8235;52.198;9.904;2023-03-18T01:57:01;100113.03;;;12.24;56.44
16255;BME280;8235;52.198;9.904;2023-03-18T01:59:31;100117.66;;;12.22;56.61
16255;BME280;8235;52.198;9.904;2023-03-18T02:02:03;100112.31;;;12.22;56.75
16255;BME280;8235;52.198;9.904;2023-03-18T02:04:33;100122.25;;;12.20;56.70
16255;BME280;8235;52.198;9.904;2023-03-18T02:07:01;100123.94;;;12.21;57.12
16255;BME280;8235;52.198;9.904;2023-03-18T02:09:27;100107.19;;;12.19;56.89
16255;BME280;8235;52.198;9.904;2023-03-18T02:11:55;100116.22;;;12.18;57.22
16255;BME280;8235;52.198;9.904;2023-03-18T02:14:24;100127.00;;;12.16;57.59
16255;BME280;8235;52.198;9.904;2023-03-18T02:16:54;100127.00;;;12.16;57.67
16255;BME280;8235;52.198;9.904;2023-03-18T02:19:32;100121.78;;;12.15;57.78
16255;BME280;8235;52.198;9.904;2023-03-18T02:22:10;100120.06;;;12.14;57.74
16255;BME280;8235;52.198;9.904;2023-03-18T02:24:46;100119.34;;;12.12;57.99
16255;BME280;8235;52.198;9.904;2023-03-18T02:27:18;100124.69;;;12.12;58.40
16255;BME280;8235;52.198;9.904;2023-03-18T02:29:45;100129.19;;;12.11;58.68
16255;BME280;8235;52.198;9.904;2023-03-18T02:32:14;100131.00;;;12.11;59.05
16255;BME280;8235;52.198;9.904;2023-03-18T02:34:42;100135.38;;;12.12;59.90
16255;BME280;8235;52.198;9.904;2023-03-18T02:37:09;100130.88;;;12.12;60.41
16255;BME280;8235;52.198;9.904;2023-03-18T02:39:35;100134.16;;;12.16;61.20
16255;BME280;8235;52.198;9.904;2023-03-18T02:42:02;100141.06;;;12.18;61.42
16255;BME280;8235;52.198;9.904;2023-03-18T02:44:31;100136.56;;;12.19;61.88
16255;BME280;8235;52.198;9.904;2023-03-18T02:47:00;100144.72;;;12.18;62.25
16255;BME280;8235;52.198;9.904;2023-03-18T02:49:29;100143.03;;;12.16;62.66
16255;BME280;8235;52.198;9.904;2023-03-18T02:51:57;100136.09;;;12.14;62.89
16255;BME280;8235;52.198;9.904;2023-03-18T02:54:27;100141.56;;;12.12;63.58
16255;BME280;8235;52.198;9.904;2023-03-18T02:56:54;100143.50;;;12.10;63.90
16255;BME280;8235;52.198;9.904;2023-03-18T02:59:22;100140.94;;;12.09;64.06
16255;BME280;8235;52.198;9.904;2023-03-18T03:01:51;100136.69;;;12.06;64.36
16255;BME280;8235;52.198;9.904;2023-03-18T03:04:22;100147.59;;;12.03;64.64
16255;BME280;8235;52.198;9.904;2023-03-18T03:06:49;100155.81;;;12.00;65.13
16255;BME280;8235;52.198;9.904;2023-03-18T03:09:17;100159.59;;;11.98;65.39
16255;BME280;8235;52.198;9.904;2023-03-18T03:11:45;100157.91;;;11.97;66.00
16255;BME280;8235;52.198;9.904;2023-03-18T03:14:13;100163.47;;;11.94;66.19
16255;BME280;8235;52.198;9.904;2023-03-18T03:16:40;100160.91;;;11.92;66.81
16255;BME280;8235;52.198;9.904;2023-03-18T03:19:08;100159.34;;;11.90;67.68
16255;BME280;8235;52.198;9.904;2023-03-18T03:21:34;100166.59;;;11.88;68.22
16255;BME280;8235;52.198;9.904;2023-03-18T03:24:01;100176.53;;;11.86;69.13
16255;BME280;8235;52.198;9.904;2023-03-18T03:26:28;100176.75;;;11.82;69.69
16255;BME280;8235;52.198;9.904;2023-03-18T03:28:56;100178.72;;;11.80;70.09
16255;BME280;8235;52.198;9.904;2023-03-18T03:31:23;100178.84;;;11.79;71.00
16255;BME280;8235;52.198;9.904;2023-03-18T03:33:50;100177.25;;;11.76;71.59
16255;BME280;8235;52.198;9.904;2023-03-18T03:36:18;100174.66;;;11.75;72.46
16255;BME280;8235;52.198;9.904;2023-03-18T03:38:44;100175.00;;;11.70;72.69
16255;BME280;8235;52.198;9.904;2023-03-18T03:41:12;100177.16;;;11.65;73.27
16255;BME280;8235;52.198;9.904;2023-03-18T03:43:40;100173.91;;;11.62;73.84
16255;BME280;8235;52.198;9.904;2023-03-18T03:46:08;100183.09;;;11.58;74.37
16255;BME280;8235;52.198;9.904;2023-03-18T03:48:35;100182.47;;;11.54;74.97
16255;BME280;8235;52.198;9.904;2023-03-18T03:51:02;100175.53;;;11.52;75.50
16255;BME280;8235;52.198;9.904;2023-03-18T03:53:31;100175.63;;;11.50;75.93
16255;BME280;8235;52.198;9.904;2023-03-18T03:55:58;100175.00;;;11.46;76.84
16255;BME280;8235;52.198;9.904;2023-03-18T03:58:24;100177.81;;;11.45;77.25
16255;BME280;8235;52.198;9.904;2023-03-18T04:00:51;100178.03;;;11.42;77.72
16255;BME280;8235;52.198;9.904;2023-03-18T04:03:17;100179.97;;;11.40;78.30
16255;BME280;8235;52.198;9.904;2023-03-18T04:05:44;100179.13;;;11.39;78.87
16255;BME280;8235;52.198;9.904;2023-03-18T04:08:10;100168.69;;;11.36;79.34
16255;BME280;8235;52.198;9.904;2023-03-18T04:10:38;100180.41;;;11.34;79.92
16255;BME280;8235;52.198;9.904;2023-03-18T04:13:05;100174.34;;;11.32;80.43
16255;BME280;8235;52.198;9.904;2023-03-18T04:15:33;100181.75;;;11.28;80.39
16255;BME280;8235;52.198;9.904;2023-03-18T04:18:00;100191.78;;;11.25;80.57
16255;BME280;8235;52.198;9.904;2023-03-18T04:20:31;100180.69;;;11.18;80.96
16255;BME280;8235;52.198;9.904;2023-03-18T04:22:58;100179.31;;;11.12;81.02
16255;BME280;8235;52.198;9.904;2023-03-18T04:25:24;100184.16;;;11.07;81.34
16255;BME280;8235;52.198;9.904;2023-03-18T04:27:52;100182.66;;;11.03;81.30
16255;BME280;8235;52.198;9.904;2023-03-18T04:30:19;100188.31;;;10.99;81.51
16255;BME280;8235;52.198;9.904;2023-03-18T04:32:47;100193.97;;;10.94;82.01
16255;BME280;8235;52.198;9.904;2023-03-18T04:35:14;100206.59;;;10.92;82.35
16255;BME280;8235;52.198;9.904;2023-03-18T04:37:41;100199.66;;;10.90;82.47
16255;BME280;8235;52.198;9.904;2023-03-18T04:40:10;100198.91;;;10.88;82.75
16255;BME280;8235;52.198;9.904;2023-03-18T04:42:37;100199.13;;;10.85;82.98
16255;BME280;8235;52.198;9.904;2023-03-18T04:45:06;100197.53;;;10.82;83.14
16255;BME280;8235;52.198;9.904;2023-03-18T04:47:32;100195.94;;;10.79;83.23
16255;BME280;8235;52.198;9.904;2023-03-18T04:50:00;100190.81;;;10.76;83.86
16255;BME280;8235;52.198;9.904;2023-03-18T04:52:26;100188.41;;;10.73;84.00
16255;BME280;8235;52.198;9.904;2023-03-18T04:54:53;100191.28;;;10.70;84.27
16255;BME280;8235;52.198;9.904;2023-03-18T04:57:19;100194.25;;;10.66;84.45
16255;BME280;8235;52.198;9.904;2023-03-18T04:59:46;100195.53;;;10.60;84.84
16255;BME280;8235;52.198;9.904;2023-03-18T05:02:14;100191.53;;;10.55;84.71
16255;BME280;8235;52.198;9.904;2023-03-18T05:04:40;100191.94;;;10.49;84.99
16255;BME280;8235;52.198;9.904;2023-03-18T05:07:07;100195.88;;;10.43;84.93
16255;BME280;8235;52.198;9.904;2023-03-18T05:09:33;100202.59;;;10.36;85.28
16255;BME280;8235;52.198;9.904;2023-03-18T05:12:00;100191.50;;;10.29;85.56
16255;BME280;8235;52.198;9.904;2023-03-18T05:14:26;100199.72;;;10.26;86.02
16255;BME280;8235;52.198;9.904;2023-03-18T05:16:53;100202.56;;;10.23;86.39
16255;BME280;8235;52.198;9.904;2023-03-18T05:19:21;100195.78;;;10.19;86.21
16255;BME280;8235;52.198;9.904;2023-03-18T05:21:48;100213.63;;;10.17;86.32
16255;BME280;8235;52.198;9.904;2023-03-18T05:24:14;100205.84;;;10.14;86.61
16255;BME280;8235;52.198;9.904;2023-03-18T05:26:41;100196.38;;;10.10;86.92
16255;BME280;8235;52.198;9.904;2023-03-18T05:29:08;100198.38;;;10.06;87.04
16255;BME280;8235;52.198;9.904;2023-03-18T05:31:35;100203.81;;;10.05;86.67
16255;BME280;8235;52.198;9.904;2023-03-18T05:34:02;100211.06;;;10.03;86.78
16255;BME280;8235;52.198;9.904;2023-03-18T05:36:30;100221.91;;;10.00;87.11
16255;BME280;8235;52.198;9.904;2023-03-18T05:38:57;100215.84;;;9.98;87.13
16255;BME280;8235;52.198;9.904;2023-03-18T05:41:23;100221.25;;;9.96;87.47
16255;BME280;8235;52.198;9.904;2023-03-18T05:43:50;100220.50;;;9.94;87.35
16255;BME280;8235;52.198;9.904;2023-03-18T05:46:16;100222.41;;;9.92;87.42
16255;BME280;8235;52.198;9.904;2023-03-18T05:48:43;100219.00;;;9.90;87.92
16255;BME280;8235;52.198;9.904;2023-03-18T05:51:09;100217.09;;;9.92;88.38
16255;BME280;8235;52.198;9.904;2023-03-18T05:53:38;100225.06;;;9.92;88.49
16255;BME280;8235;52.198;9.904;2023-03-18T05:56:05;100221.66;;;9.90;88.35
16255;BME280;8235;52.198;9.904;2023-03-18T05:58:32;100221.13;;;9.85;88.20
16255;BME280;8235;52.198;9.904;2023-03-18T06:00:59;100224.28;;;9.78;87.87
16255;BME280;8235;52.198;9.904;2023-03-18T06:03:26;100241.50;;;9.72;87.40
16255;BME280;8235;52.198;9.904;2023-03-18T06:05:53;100237.34;;;9.68;87.88
16255;BME280;8235;52.198;9.904;2023-03-18T06:08:20;100232.34;;;9.63;87.66
16255;BME280;8235;52.198;9.904;2023-03-18T06:10:49;100228.19;;;9.59;87.18
16255;BME280;8235;52.198;9.904;2023-03-18T06:13:15;100230.28;;;9.54;87.89
16255;BME280;8235;52.198;9.904;2023-03-18T06:15:42;100236.66;;;9.52;87.89
16255;BME280;8235;52.198;9.904;2023-03-18T06:18:09;100241.34;;;9.48;87.92
16255;BME280;8235;52.198;9.904;2023-03-18T06:20:35;100234.41;;;9.46;87.44
16255;BME280;8235;52.198;9.904;2023-03-18T06:23:02;100239.91;;;9.43;88.09
16255;BME280;8235;52.198;9.904;2023-03-18T06:25:30;100232.03;;;9.41;87.59
16255;BME280;8235;52.198;9.904;2023-03-18T06:27:57;100231.28;;;9.39;88.14
16255;BME280;8235;52.198;9.904;2023-03-18T06:30:24;100225.13;;;9.38;88.65
16255;BME280;8235;52.198;9.904;2023-03-18T06:32:50;100235.56;;;9.42;89.72
16255;BME280;8235;52.198;9.904;2023-03-18T06:35:17;100238.69;;;9.48;90.38
16255;BME280;8235;52.198;9.904;2023-03-18T06:37:44;100237.31;;;9.55;90.83
16255;BME280;8235;52.198;9.904;2023-03-18T06:40:11;100236.91;;;9.61;91.14
16255;BME280;8235;52.198;9.904;2023-03-18T06:42:37;100248.97;;;9.67;91.31
16255;BME280;8235;52.198;9.904;2023-03-18T06:45:07;100253.09;;;9.71;90.93
16255;BME280;8235;52.198;9.904;2023-03-18T06:47:34;100245.69;;;9.76;91.08
16255;BME280;8235;52.198;9.904;2023-03-18T06:50:00;100250.78;;;9.79;91.20
16255;BME280;8235;52.198;9.904;2023-03-18T06:52:27;100256.97;;;9.80;90.91
16255;BME280;8235;52.198;9.904;2023-03-18T06:54:54;100265.91;;;9.79;90.59
16255;BME280;8235;52.198;9.904;2023-03-18T06:57:20;100265.13;;;9.77;90.72
16255;BME280;8235;52.198;9.904;2023-03-18T06:59:47;100264.28;;;9.76;90.77
16255;BME280;8235;52.198;9.904;2023-03-18T07:02:14;100266.66;;;9.81;91.09
16255;BME280;8235;52.198;9.904;2023-03-18T07:04:41;100267.31;;;9.84;91.38
16255;BME280;8235;52.198;9.904;2023-03-18T07:07:08;100272.09;;;9.92;91.73
16255;BME280;8235;52.198;9.904;2023-03-18T07:09:35;100275.31;;;9.97;91.84
16255;BME280;8235;52.198;9.904;2023-03-18T07:12:02;100279.38;;;10.02;91.81
16255;BME280;8235;52.198;9.904;2023-03-18T07:14:30;100285.97;;;10.09;92.27
16255;BME280;8235;52.198;9.904;2023-03-18T07:16:57;100289.00;;;10.18;92.59
16255;BME280;8235;52.198;9.904;2023-03-18T07:19:25;100289.44;;;10.24;92.61
16255;BME280;8235;52.198;9.904;2023-03-18T07:21:51;100285.63;;;10.28;92.86
16255;BME280;8235;52.198;9.904;2023-03-18T07:24:18;100293.97;;;10.36;92.71
16255;BME280;8235;52.198;9.904;2023-03-18T07:26:45;100303.22;;;10.43;92.96
16255;BME280;8235;52.198;9.904;2023-03-18T07:29:14;100311.66;;;10.50;92.72
16255;BME280;8235;52.198;9.904;2023-03-18T07:31:41;100305.06;;;10.56;92.88
16255;BME280;8235;52.198;9.904;2023-03-18T07:34:08;100304.63;;;10.62;92.80
16255;BME280;8235;52.198;9.904;2023-03-18T07:36:36;100312.19;;;10.68;92.86
16255;BME280;8235;52.198;9.904;2023-03-18T07:39:04;100314.19;;;10.77;92.87
16255;BME280;8235;52.198;9.904;2023-03-18T07:41:31;100315.50;;;10.84;92.86
16255;BME280;8235;52.198;9.904;2023-03-18T07:43:57;100315.81;;;10.92;93.08
16255;BME280;8235;52.198;9.904;2023-03-18T07:46:24;100319.53;;;11.02;93.07
16255;BME280;8235;52.198;9.904;2023-03-18T07:48:51;100319.50;;;11.15;93.40
16255;BME280;8235;52.198;9.904;2023-03-18T07:51:18;100321.94;;;11.31;93.77
16255;BME280;8235;52.198;9.904;2023-03-18T07:53:46;100326.19;;;11.46;93.80
16255;BME280;8235;52.198;9.904;2023-03-18T07:56:14;100325.69;;;11.65;93.31
16255;BME280;8235;52.198;9.904;2023-03-18T07:58:41;100328.47;;;11.76;92.43
16255;BME280;8235;52.198;9.904;2023-03-18T08:01:07;100336.41;;;11.89;92.20
16255;BME280;8235;52.198;9.904;2023-03-18T08:03:34;100327.38;;;12.02;91.99
16255;BME280;8235;52.198;9.904;2023-03-18T08:06:01;100335.34;;;12.15;91.09
16255;BME280;8235;52.198;9.904;2023-03-18T08:08:27;100335.38;;;12.26;90.32
16255;BME280;8235;52.198;9.904;2023-03-18T08:10:57;100328.50;;;12.35;89.28
16255;BME280;8235;52.198;9.904;2023-03-18T08:13:24;100331.19;;;12.46;87.93
16255;BME280;8235;52.198;9.904;2023-03-18T08:15:51;100344.22;;;12.50;87.38
16255;BME280;8235;52.198;9.904;2023-03-18T08:18:17;100349.91;;;12.57;87.20
16255;BME280;8235;52.198;9.904;2023-03-18T08:20:44;100353.72;;;12.66;86.92
16255;BME280;8235;52.198;9.904;2023-03-18T08:23:12;100347.19;;;12.70;86.71
16255;BME280;8235;52.198;9.904;2023-03-18T08:25:40;100348.16;;;12.80;86.12
16255;BME280;8235;52.198;9.904;2023-03-18T08:28:08;100345.66;;;12.90;85.91
16255;BME280;8235;52.198;9.904;2023-03-18T08:30:37;100342.13;;;13.00;85.80
16255;BME280;8235;52.198;9.904;2023-03-18T08:33:04;100340.94;;;13.15;85.76
16255;BME280;8235;52.198;9.904;2023-03-18T08:35:30;100334.25;;;13.32;84.12
16255;BME280;8235;52.198;9.904;2023-03-18T08:37:58;100337.66;;;13.45;84.32
16255;BME280;8235;52.198;9.904;2023-03-18T08:40:24;100342.75;;;13.60;83.82
16255;BME280;8235;52.198;9.904;2023-03-18T08:42:51;100347.00;;;13.73;83.14
16255;BME280;8235;52.198;9.904;2023-03-18T08:45:19;100355.84;;;13.85;82.46
16255;BME280;8235;52.198;9.904;2023-03-18T08:47:46;100356.06;;;13.93;80.94
16255;BME280;8235;52.198;9.904;2023-03-18T08:50:14;100360.28;;;14.07;80.18
16255;BME280;8235;52.198;9.904;2023-03-18T08:52:40;100361.09;;;14.18;80.61
16255;BME280;8235;52.198;9.904;2023-03-18T08:55:07;100366.06;;;14.23;78.94
16255;BME280;8235;52.198;9.904;2023-03-18T08:57:34;100368.13;;;14.31;78.87
16255;BME280;8235;52.198;9.904;2023-03-18T09:00:02;100365.31;;;14.32;78.00
16255;BME280;8235;52.198;9.904;2023-03-18T09:02:30;100370.09;;;14.29;76.73
16255;BME280;8235;52.198;9.904;2023-03-18T09:04:57;100366.44;;;14.30;76.52
16255;BME280;8235;52.198;9.904;2023-03-18T09:07:24;100379.41;;;14.34;76.63
16255;BME280;8235;52.198;9.904;2023-03-18T09:09:51;100376.16;;;14.31;76.44
16255;BME280;8235;52.198;9.904;2023-03-18T09:12:18;100378.25;;;14.27;75.48
16255;BME280;8235;52.198;9.904;2023-03-18T09:14:44;100377.41;;;14.27;75.44
16255;BME280;8235;52.198;9.904;2023-03-18T09:17:11;100381.28;;;14.22;75.52
16255;BME280;8235;52.198;9.904;2023-03-18T09:19:40;100381.28;;;14.22;75.58
16255;BME280;8235;52.198;9.904;2023-03-18T09:22:07;100380.31;;;14.23;75.70
16255;BME280;8235;52.198;9.904;2023-03-18T09:24:34;100386.78;;;14.21;75.16
16255;BME280;8235;52.198;9.904;2023-03-18T09:27:00;100381.66;;;14.18;74.99
16255;BME280;8235;52.198;9.904;2023-03-18T09:29:27;100377.28;;;14.17;74.85
16255;BME280;8235;52.198;9.904;2023-03-18T09:31:53;100387.56;;;14.12;74.72
16255;BME280;8235;52.198;9.904;2023-03-18T09:34:20;100386.03;;;14.19;75.00
16255;BME280;8235;52.198;9.904;2023-03-18T09:36:48;100385.75;;;14.33;76.03
16255;BME280;8235;52.198;9.904;2023-03-18T09:39:16;100384.25;;;14.51;75.92
16255;BME280;8235;52.198;9.904;2023-03-18T09:41:52;100378.06;;;14.72;75.86
16255;BME280;8235;52.198;9.904;2023-03-18T09:44:25;100380.44;;;14.86;73.96
16255;BME280;8235;52.198;9.904;2023-03-18T09:47:03;100379.38;;;14.98;72.81
16255;BME280;8235;52.198;9.904;2023-03-18T09:49:51;100384.41;;;15.12;73.21
16255;BME280;8235;52.198;9.904;2023-03-18T09:52:26;100377.97;;;15.24;72.23
16255;BME280;8235;52.198;9.904;2023-03-18T09:54:58;100386.94;;;15.35;71.28
16255;BME280;8235;52.198;9.904;2023-03-18T09:57:30;100386.22;;;15.42;69.91
16255;BME280;8235;52.198;9.904;2023-03-18T10:00:03;100385.72;;;15.48;69.34
16255;BME280;8235;52.198;9.904;2023-03-18T10:02:36;100387.88;;;15.54;68.69
16255;BME280;8235;52.198;9.904;2023-03-18T10:05:09;100382.09;;;15.59;68.64
16255;BME280;8235;52.198;9.904;2023-03-18T10:07:40;100388.63;;;15.66;68.93
16255;BME280;8235;52.198;9.904;2023-03-18T10:10:11;100393.47;;;15.72;68.71
16255;BME280;8235;52.198;9.904;2023-03-18T10:12:46;100397.28;;;15.79;68.10
16255;BME280;8235;52.198;9.904;2023-03-18T10:15:16;100395.31;;;15.81;67.69
16255;BME280;8235;52.198;9.904;2023-03-18T10:17:45;100407.50;;;15.85;67.64
16255;BME280;8235;52.198;9.904;2023-03-18T10:20:17;100396.16;;;15.82;66.42
16255;BME280;8235;52.198;9.904;2023-03-18T10:23:05;100399.00;;;15.80;66.98
16255;BME280;8235;52.198;9.904;2023-03-18T10:25:38;100398.28;;;15.78;66.75
16255;BME280;8235;52.198;9.904;2023-03-18T10:28:34;100400.41;;;15.75;66.42
16255;BME280;8235;52.198;9.904;2023-03-18T10:31:10;100396.41;;;15.69;66.47
16255;BME280;8235;52.198;9.904;2023-03-18T10:33:45;100396.28;;;15.71;67.08
16255;BME280;8235;52.198;9.904;2023-03-18T10:36:17;100394.44;;;15.71;66.88
16255;BME280;8235;52.198;9.904;2023-03-18T10:38:47;100395.03;;;15.75;66.84
16255;BME280;8235;52.198;9.904;2023-03-18T10:41:19;100394.47;;;15.81;66.58
16255;BME280;8235;52.198;9.904;2023-03-18T10:43:48;100401.81;;;15.79;65.61
16255;BME280;8235;52.198;9.904;2023-03-18T10:46:18;100395.03;;;15.75;65.41
16255;BME280;8235;52.198;9.904;2023-03-18T10:48:48;100392.06;;;15.78;65.52
16255;BME280;8235;52.198;9.904;2023-03-18T10:51:20;100392.78;;;15.80;65.78
16255;BME280;8235;52.198;9.904;2023-03-18T10:53:55;100391.97;;;15.89;65.56
16255;BME280;8235;52.198;9.904;2023-03-18T10:56:24;100398.34;;;15.97;65.29
16255;BME280;8235;52.198;9.904;2023-03-18T10:58:51;100396.22;;;16.01;64.69
16255;BME280;8235;52.198;9.904;2023-03-18T11:01:20;100391.56;;;16.03;63.69
16255;BME280;8235;52.198;9.904;2023-03-18T11:03:51;100393.97;;;16.06;63.14
16255;BME280;8235;52.198;9.904;2023-03-18T11:06:22;100389.19;;;16.10;62.69
16255;BME280;8235;52.198;9.904;2023-03-18T11:09:00;100384.22;;;16.15;62.88
16255;BME280;8235;52.198;9.904;2023-03-18T11:11:29;100385.09;;;16.25;61.67
16255;BME280;8235;52.198;9.904;2023-03-18T11:14:00;100392.75;;;16.29;61.53
16255;BME280;8235;52.198;9.904;2023-03-18T11:16:29;100390.91;;;16.30;61.53
16255;BME280;8235;52.198;9.904;2023-03-18T11:18:58;100390.47;;;16.35;61.98
16255;BME280;8235;52.198;9.904;2023-03-18T11:21:26;100394.88;;;16.45;62.34
16255;BME280;8235;52.198;9.904;2023-03-18T11:23:59;100400.09;;;16.56;62.05
16255;BME280;8235;52.198;9.904;2023-03-18T11:26:45;100400.28;;;16.64;59.99
16255;BME280;8235;52.198;9.904;2023-03-18T11:29:15;100398.84;;;16.70;60.36
16255;BME280;8235;52.198;9.904;2023-03-18T11:31:50;100411.47;;;16.79;60.74
16255;BME280;8235;52.198;9.904;2023-03-18T11:34:19;100403.50;;;16.87;60.10
16255;BME280;8235;52.198;9.904;2023-03-18T11:36:52;100405.06;;;16.90;60.27
16255;BME280;8235;52.198;9.904;2023-03-18T11:39:21;100411.59;;;16.97;59.99
16255;BME280;8235;52.198;9.904;2023-03-18T11:41:49;100413.00;;;17.01;59.49
16255;BME280;8235;52.198;9.904;2023-03-18T11:44:17;100401.94;;;17.04;59.30
16255;BME280;8235;52.198;9.904;2023-03-18T11:46:46;100401.63;;;17.07;59.46
16255;BME280;8235;52.198;9.904;2023-03-18T11:49:18;100399.66;;;17.09;58.55
16255;BME280;8235;52.198;9.904;2023-03-18T11:51:47;100394.84;;;17.13;58.91
16255;BME280;8235;52.198;9.904;2023-03-18T11:54:34;100409.84;;;17.15;58.76
16255;BME280;8235;52.198;9.904;2023-03-18T11:57:10;100403.19;;;17.19;58.65
16255;BME280;8235;52.198;9.904;2023-03-18T11:59:51;100404.19;;;17.18;58.19
16255;BME280;8235;52.198;9.904;2023-03-18T12:02:32;100412.41;;;17.17;58.58
16255;BME280;8235;52.198;9.904;2023-03-18T12:05:29;100407.88;;;17.17;58.42
16255;BME280;8235;52.198;9.904;2023-03-18T12:08:02;100407.16;;;17.15;57.72
16255;BME280;8235;52.198;9.904;2023-03-18T12:10:35;100408.16;;;17.14;57.54
16255;BME280;8235;52.198;9.904;2023-03-18T12:13:15;100405.59;;;17.13;57.68
16255;BME280;8235;52.198;9.904;2023-03-18T12:15:52;100407.03;;;17.17;57.47
16255;BME280;8235;52.198;9.904;2023-03-18T12:18:33;100414.09;;;17.18;57.32
16255;BME280;8235;52.198;9.904;2023-03-18T12:21:10;100406.41;;;17.23;57.07
16255;BME280;8235;52.198;9.904;2023-03-18T12:24:01;100393.66;;;17.25;56.24
16255;BME280;8235;52.198;9.904;2023-03-18T12:26:39;100411.94;;;17.21;56.52
16255;BME280;8235;52.198;9.904;2023-03-18T12:29:39;100402.34;;;17.19;56.65
16255;BME280;8235;52.198;9.904;2023-03-18T12:32:18;100403.03;;;17.21;56.45
16255;BME280;8235;52.198;9.904;2023-03-18T12:35:03;100406.16;;;17.16;55.48
16255;BME280;8235;52.198;9.904;2023-03-18T12:37:42;100410.00;;;17.14;54.84
16255;BME280;8235;52.198;9.904;2023-03-18T12:40:38;100407.44;;;17.12;55.04
16255;BME280;8235;52.198;9.904;2023-03-18T12:43:25;100404.91;;;17.11;54.91
16255;BME280;8235;52.198;9.904;2023-03-18T12:45:58;100406.03;;;17.08;54.90
16255;BME280;8235;52.198;9.904;2023-03-18T12:48:29;100401.34;;;17.10;55.22
16255;BME280;8235;52.198;9.904;2023-03-18T12:51:02;100402.34;;;17.09;54.98
16255;BME280;8235;52.198;9.904;2023-03-18T12:53:34;100407.59;;;17.11;54.97
16255;BME280;8235;52.198;9.904;2023-03-18T12:56:04;100398.81;;;17.09;54.76
16255;BME280;8235;52.198;9.904;2023-03-18T12:58:37;100398.81;;;17.09;54.75
16255;BME280;8235;52.198;9.904;2023-03-18T13:01:12;100407.59;;;17.11;54.90
16255;BME280;8235;52.198;9.904;2023-03-18T13:03:43;100391.88;;;17.16;54.81
16255;BME280;8235;52.198;9.904;2023-03-18T13:06:15;100381.66;;;17.19;54.68
16255;BME280;8235;52.198;9.904;2023-03-18T13:08:53;100392.13;;;17.22;54.45
16255;BME280;8235;52.198;9.904;2023-03-18T13:11:30;100401.03;;;17.23;54.21
16255;BME280;8235;52.198;9.904;2023-03-18T13:14:04;100385.44;;;17.26;54.51